Time;durP1;ratioP1;P1;durP2;ratioP2;P2;SDS_P1;SDS_P2;PMS_P1;PMS_P2;Temp;Humidity;BMP_temperature;BMP_pressure;BME280_temperature;BME280_humidity;BME280_pressure;Samples;Min_cycle;Max_cycle;Signal;HPM_P1;HPM_P2
2021/09/06 00:01:46;;;;;;;6.25;3.38;;;11.00;93.40;;;;;;5117486;28;20041;-76
2021/09/06 00:04:12;;;;;;;4.95;3.33;;;11.00;93.50;;;;;;5116984;28;20048;-77
2021/09/06 00:06:40;;;;;;;7.32;3.05;;;11.00;93.60;;;;;;5116939;28;20031;-77
2021/09/06 00:09:06;;;;;;;4.63;3.42;;;11.00;93.80;;;;;;5117053;28;20023;-77
2021/09/06 00:11:31;;;;;;;4.35;3.28;;;11.00;93.90;;;;;;5116947;28;20028;-76
2021/09/06 00:13:57;;;;;;;5.75;3.70;;;11.00;94.00;;;;;;5116698;28;20034;-76
2021/09/06 00:16:23;;;;;;;6.53;3.75;;;10.90;94.10;;;;;;5116891;28;20030;-77
2021/09/06 00:18:49;;;;;;;4.78;3.38;;;11.00;94.20;;;;;;5116850;28;20031;-77
2021/09/06 00:21:15;;;;;;;5.35;3.72;;;10.90;94.40;;;;;;5116821;28;20028;-76
2021/09/06 00:23:40;;;;;;;5.68;3.50;;;10.90;94.50;;;;;;5116881;28;20027;-76
2021/09/06 00:26:06;;;;;;;6.05;3.83;;;10.90;94.60;;;;;;5116456;28;20030;-76
2021/09/06 00:28:32;;;;;;;5.40;3.65;;;10.90;94.70;;;;;;5116801;28;20043;-76
2021/09/06 00:30:58;;;;;;;4.13;3.33;;;10.80;94.70;;;;;;5116737;28;20026;-76
2021/09/06 00:33:23;;;;;;;7.28;3.33;;;10.80;94.90;;;;;;5116424;28;20367;-76
2021/09/06 00:35:50;;;;;;;5.70;3.85;;;10.70;95.00;;;;;;5116422;28;20038;-77
2021/09/06 00:38:17;;;;;;;4.65;3.50;;;10.70;95.20;;;;;;5116526;28;20024;-76
2021/09/06 00:40:44;;;;;;;4.43;3.45;;;10.70;95.30;;;;;;5116449;28;20541;-76
2021/09/06 00:43:10;;;;;;;6.22;3.80;;;10.70;95.40;;;;;;5116271;28;20030;-76
2021/09/06 00:45:37;;;;;;;4.38;3.60;;;10.60;95.40;;;;;;5115952;28;20566;-76
2021/09/06 00:48:03;;;;;;;6.13;3.88;;;10.60;95.50;;;;;;5116356;28;20489;-76
2021/09/06 00:50:30;;;;;;;5.82;3.60;;;10.60;95.80;;;;;;5116003;28;20055;-77
2021/09/06 00:52:55;;;;;;;5.90;4.22;;;10.60;95.90;;;;;;5116348;28;20236;-76
2021/09/06 00:55:23;;;;;;;5.90;3.50;;;10.70;96.30;;;;;;5116365;28;20091;-77
2021/09/06 00:57:49;;;;;;;5.80;3.38;;;10.70;96.30;;;;;;5115939;28;20077;-77
2021/09/06 01:00:16;;;;;;;5.68;3.75;;;10.80;96.50;;;;;;5116198;28;20031;-77
2021/09/06 01:02:42;;;;;;;7.20;3.78;;;10.80;96.80;;;;;;5115735;28;20092;-77
2021/09/06 01:05:09;;;;;;;5.22;3.72;;;10.80;96.90;;;;;;5116110;28;20031;-77
2021/09/06 01:07:35;;;;;;;5.85;3.47;;;10.80;97.00;;;;;;5115498;28;20038;-77
2021/09/06 01:10:07;;;;;;;5.47;3.70;;;10.80;97.20;;;;;;5115876;28;20031;-76
2021/09/06 01:12:33;;;;;;;4.80;3.53;;;10.80;97.40;;;;;;5115771;28;20008;-76
2021/09/06 01:14:58;;;;;;;5.07;3.78;;;10.90;97.40;;;;;;5115787;28;20084;-76
2021/09/06 01:17:24;;;;;;;5.28;3.88;;;10.80;97.50;;;;;;5115726;28;20053;-76
2021/09/06 01:19:50;;;;;;;4.05;3.63;;;10.90;97.70;;;;;;5115649;28;20086;-76
2021/09/06 01:22:18;;;;;;;5.13;3.50;;;10.90;97.90;;;;;;5115553;28;20032;-77
2021/09/06 01:24:44;;;;;;;4.93;3.40;;;10.90;97.90;;;;;;5095219;28;20035;-77
2021/09/06 01:27:10;;;;;;;6.88;3.63;;;10.90;97.90;;;;;;5095369;28;20034;-77
2021/09/06 01:29:36;;;;;;;6.68;3.70;;;10.90;97.80;;;;;;5095223;28;20017;-77
2021/09/06 01:32:04;;;;;;;5.70;3.78;;;10.90;97.60;;;;;;5095196;28;20069;-76
2021/09/06 01:34:30;;;;;;;6.47;3.92;;;10.90;97.60;;;;;;5095183;28;20024;-77
2021/09/06 01:36:55;;;;;;;7.25;3.63;;;10.80;97.50;;;;;;5114827;28;20069;-76
2021/09/06 01:39:21;;;;;;;4.75;3.42;;;10.70;97.60;;;;;;5115450;28;20077;-76
2021/09/06 01:41:47;;;;;;;6.22;3.78;;;10.70;97.60;;;;;;5115400;28;20030;-76
2021/09/06 01:44:12;;;;;;;5.45;3.78;;;10.70;97.60;;;;;;5114824;28;20718;-76
2021/09/06 01:46:38;;;;;;;6.40;3.80;;;10.60;97.70;;;;;;5114838;28;20102;-76
2021/09/06 01:49:04;;;;;;;4.68;3.40;;;10.60;97.80;;;;;;5115003;28;20122;-77
2021/09/06 01:51:29;;;;;;;6.85;3.90;;;10.50;97.90;;;;;;5114855;28;20031;-76
2021/09/06 01:53:55;;;;;;;5.57;3.45;;;10.50;98.00;;;;;;5114937;28;20023;-76
2021/09/06 01:56:22;;;;;;;5.43;3.88;;;10.50;98.00;;;;;;5113741;28;20032;-76
2021/09/06 01:58:48;;;;;;;4.85;3.67;;;10.40;98.10;;;;;;5114561;28;20028;-76
2021/09/06 02:01:14;;;;;;;6.25;3.45;;;10.40;98.20;;;;;;5114898;28;20023;-76
2021/09/06 02:03:40;;;;;;;5.88;3.83;;;10.40;98.20;;;;;;5114637;28;20145;-76
2021/09/06 02:06:06;;;;;;;6.80;4.30;;;10.30;98.30;;;;;;5114845;28;20054;-76
2021/09/06 02:08:32;;;;;;;7.07;3.70;;;10.30;98.30;;;;;;5114534;28;20034;-76
2021/09/06 02:10:57;;;;;;;5.07;3.60;;;10.30;98.30;;;;;;5114624;28;20121;-76
2021/09/06 02:13:23;;;;;;;5.45;3.80;;;10.20;98.30;;;;;;5114058;28;20026;-76
2021/09/06 02:15:49;;;;;;;7.78;3.83;;;10.20;98.30;;;;;;5114579;28;20042;-76
2021/09/06 02:18:15;;;;;;;6.30;4.20;;;10.10;98.30;;;;;;5114499;28;20031;-76
2021/09/06 02:20:40;;;;;;;6.28;3.80;;;10.10;98.40;;;;;;5113473;28;20023;-76
2021/09/06 02:23:07;;;;;;;6.82;4.07;;;10.10;98.30;;;;;;5115197;28;20076;-76
2021/09/06 02:25:32;;;;;;;7.85;3.80;;;10.00;98.20;;;;;;5114849;28;20370;-76
2021/09/06 02:27:58;;;;;;;5.57;4.22;;;10.00;98.30;;;;;;5114068;28;20024;-76
2021/09/06 02:30:24;;;;;;;7.88;4.20;;;10.00;98.40;;;;;;5115196;28;20098;-76
2021/09/06 02:32:50;;;;;;;6.53;3.95;;;10.00;98.50;;;;;;5114869;28;20372;-76
2021/09/06 02:35:16;;;;;;;10.80;4.70;;;9.90;98.50;;;;;;5114515;28;20103;-76
2021/09/06 02:37:42;;;;;;;8.02;4.30;;;9.90;98.50;;;;;;5113870;28;20145;-76
2021/09/06 02:40:09;;;;;;;8.15;4.72;;;9.90;98.40;;;;;;5113371;28;20038;-77
2021/09/06 02:42:35;;;;;;;7.25;4.38;;;9.90;98.30;;;;;;5114659;28;20470;-76
2021/09/06 02:45:00;;;;;;;8.35;5.65;;;9.90;98.20;;;;;;5114833;28;20030;-76
2021/09/06 02:47:29;;;;;;;7.55;4.90;;;9.90;98.10;;;;;;5113054;28;20049;-77
2021/09/06 02:49:55;;;;;;;7.18;4.57;;;9.80;98.00;;;;;;5113543;28;20457;-76
2021/09/06 02:52:22;;;;;;;6.35;4.40;;;9.80;97.90;;;;;;5114263;28;20389;-76
2021/09/06 02:54:47;;;;;;;8.73;4.43;;;9.70;97.90;;;;;;5114201;28;20404;-76
2021/09/06 02:57:13;;;;;;;7.40;5.18;;;9.70;98.00;;;;;;5113872;28;20034;-76
2021/09/06 02:59:39;;;;;;;9.15;5.25;;;9.60;98.00;;;;;;5113898;28;20032;-90
2021/09/06 03:02:05;;;;;;;10.68;6.38;;;9.60;98.00;;;;;;5114098;28;20030;-86
2021/09/06 03:04:31;;;;;;;9.25;5.85;;;9.50;98.10;;;;;;5113976;28;20047;-86
2021/09/06 03:06:56;;;;;;;10.25;5.10;;;9.50;98.20;;;;;;5113019;28;20027;-86
2021/09/06 03:09:22;;;;;;;8.77;5.78;;;9.40;98.20;;;;;;5113101;28;20031;-85
2021/09/06 03:11:47;;;;;;;9.30;5.57;;;9.40;98.30;;;;;;5112448;28;20023;-85
2021/09/06 03:14:13;;;;;;;9.13;5.85;;;9.30;98.40;;;;;;5112984;28;20114;-86
2021/09/06 03:16:39;;;;;;;7.05;5.07;;;9.30;98.60;;;;;;5112754;28;20061;-85
2021/09/06 03:19:04;;;;;;;8.55;5.43;;;9.30;98.90;;;;;;5114135;28;20020;-86
2021/09/06 03:21:30;;;;;;;10.63;5.45;;;9.30;98.60;;;;;;5112837;28;20077;-85
2021/09/06 03:23:56;;;;;;;9.63;5.50;;;9.30;98.70;;;;;;5113385;28;20378;-85
2021/09/06 03:26:22;;;;;;;8.13;5.43;;;9.20;98.60;;;;;;5117392;28;20019;-85
2021/09/06 03:28:49;;;;;;;8.63;5.63;;;9.20;98.70;;;;;;5116748;28;20434;-84
2021/09/06 03:31:15;;;;;;;8.95;5.80;;;9.20;98.70;;;;;;5116278;28;20076;-85
2021/09/06 03:33:41;;;;;;;11.93;5.88;;;9.20;99.00;;;;;;5117955;28;20027;-85
2021/09/06 03:36:06;;;;;;;9.88;5.95;;;9.10;98.80;;;;;;5117420;27;20027;-85
2021/09/06 03:38:32;;;;;;;7.57;5.65;;;9.20;98.80;;;;;;5117907;28;20024;-85
2021/09/06 03:40:58;;;;;;;9.77;6.60;;;9.10;98.90;;;;;;5116356;28;20173;-85
2021/09/06 03:43:24;;;;;;;12.15;7.38;;;9.20;98.90;;;;;;5116660;28;20024;-85
2021/09/06 03:45:49;;;;;;;14.80;9.85;;;9.20;98.90;;;;;;5115936;28;20024;-85
2021/09/06 03:48:15;;;;;;;11.95;7.57;;;9.20;98.90;;;;;;5116495;28;20030;-85
2021/09/06 16:21:29;;;;;;;5.40;3.72;;;13.80;62.90;;;;;;5091302;28;20424;-80
2021/09/06 16:23:56;;;;;;;8.10;4.13;;;13.60;64.40;;;;;;5089708;28;20036;-81
2021/09/06 16:26:23;;;;;;;7.28;3.97;;;13.50;66.00;;;;;;5089537;28;20025;-81
2021/09/06 16:28:50;;;;;;;9.57;4.45;;;13.40;67.50;;;;;;5089448;28;20023;-80
2021/09/06 16:31:15;;;;;;;7.88;4.32;;;13.40;68.70;;;;;;5089435;28;20059;-81
2021/09/06 16:33:41;;;;;;;8.00;4.28;;;13.50;69.60;;;;;;5089427;28;20063;-81
2021/09/06 16:36:08;;;;;;;8.70;4.47;;;13.50;70.30;;;;;;5090704;28;20093;-81
2021/09/06 16:38:33;;;;;;;9.98;4.00;;;13.50;71.00;;;;;;5089568;28;20020;-81
2021/09/06 16:40:59;;;;;;;7.03;3.97;;;13.50;71.40;;;;;;5090196;28;20494;-81
2021/09/06 16:43:25;;;;;;;7.85;4.35;;;13.60;71.70;;;;;;5089253;28;20021;-81
2021/09/06 16:45:51;;;;;;;10.60;4.13;;;13.70;71.90;;;;;;5088931;28;20059;-81
2021/09/06 16:48:17;;;;;;;6.90;3.80;;;13.80;72.10;;;;;;5090629;28;20024;-81
2021/09/06 16:50:42;;;;;;;8.02;4.35;;;13.80;72.20;;;;;;5089817;28;20475;-81
2021/09/06 16:53:08;;;;;;;8.02;4.30;;;13.90;72.50;;;;;;5088474;28;20351;-81
2021/09/06 16:55:34;;;;;;;7.55;4.43;;;13.90;72.90;;;;;;5087576;28;20020;-82
2021/09/06 16:57:59;;;;;;;13.25;5.13;;;14.00;73.20;;;;;;5087991;28;20102;-82
2021/09/06 17:00:25;;;;;;;24.00;12.05;;;14.00;73.30;;;;;;5088968;28;20158;-82
2021/09/06 17:02:59;;;;;;;27.42;12.50;;;14.10;73.70;;;;;;5088484;28;20063;-82
2021/09/06 17:05:25;;;;;;;23.38;12.38;;;14.10;74.00;;;;;;5089381;28;20021;-82
2021/09/06 17:07:51;;;;;;;34.95;17.73;;;14.10;74.30;;;;;;5089437;28;20150;-82
2021/09/06 17:10:18;;;;;;;27.98;13.63;;;14.10;74.70;;;;;;5089131;28;20024;-83
2021/09/06 17:12:45;;;;;;;21.02;9.60;;;14.10;75.10;;;;;;5087857;28;20055;-81
2021/09/06 17:15:11;;;;;;;16.08;8.23;;;14.10;75.40;;;;;;5089224;28;20581;-81
2021/09/06 17:17:37;;;;;;;13.45;6.63;;;14.00;75.70;;;;;;5089302;28;20063;-80
2021/09/06 17:20:04;;;;;;;12.15;6.97;;;14.00;76.10;;;;;;5088857;28;20072;-82
2021/09/06 17:22:30;;;;;;;12.73;6.88;;;13.90;76.70;;;;;;5075108;28;20036;-82
2021/09/06 17:24:56;;;;;;;15.43;6.78;;;13.80;77.30;;;;;;5072776;28;20024;-82
2021/09/06 17:27:22;;;;;;;10.02;6.50;;;13.70;77.80;;;;;;5072413;28;20052;-81
2021/09/06 17:29:47;;;;;;;9.23;5.80;;;13.70;78.10;;;;;;5068254;28;20501;-81
2021/09/06 17:32:13;;;;;;;13.57;6.18;;;13.60;78.50;;;;;;5079496;28;20111;-81
2021/09/06 17:34:39;;;;;;;15.38;6.30;;;13.60;78.50;;;;;;5076093;28;20486;-81
2021/09/06 17:37:06;;;;;;;92.50;50.72;;;13.50;78.90;;;;;;5075793;28;20035;-81
2021/09/06 17:39:32;;;;;;;39.80;22.58;;;13.50;79.30;;;;;;5075444;28;20376;-81
2021/09/06 17:41:59;;;;;;;25.48;12.93;;;13.50;79.60;;;;;;5074422;28;20367;-81
2021/09/06 17:44:28;;;;;;;19.75;10.25;;;13.50;80.10;;;;;;5076066;28;20016;-81
2021/09/06 17:46:54;;;;;;;14.68;8.25;;;13.50;80.30;;;;;;5072131;28;20025;-82
2021/09/06 17:49:47;;;;;;;14.57;8.10;;;13.50;80.50;;;;;;5075629;28;20029;-82
2021/09/06 17:52:13;;;;;;;14.05;8.55;;;13.50;80.20;;;;;;5075973;28;20367;-82
2021/09/06 17:54:39;;;;;;;14.57;8.07;;;13.60;80.30;;;;;;5074435;28;20082;-82
2021/09/06 17:57:04;;;;;;;17.20;9.20;;;13.60;80.30;;;;;;5075778;28;20461;-82
2021/09/06 17:59:30;;;;;;;21.98;9.88;;;13.60;80.40;;;;;;5075760;28;20475;-82
2021/09/06 18:01:57;;;;;;;16.55;9.02;;;13.70;80.70;;;;;;5074034;28;20074;-82
2021/09/06 18:04:23;;;;;;;15.13;9.82;;;13.70;80.80;;;;;;5075314;28;20053;-81
2021/09/06 18:06:49;;;;;;;23.70;11.95;;;13.70;80.90;;;;;;5075217;28;20021;-81
2021/09/06 18:09:15;;;;;;;28.83;16.23;;;13.80;81.20;;;;;;5074365;28;20475;-82
2021/09/06 18:11:41;;;;;;;28.05;15.80;;;13.70;81.10;;;;;;5075060;28;20031;-82
2021/09/06 18:14:07;;;;;;;26.75;15.95;;;13.80;81.20;;;;;;5075613;28;20056;-82
2021/09/06 18:16:33;;;;;;;27.65;16.55;;;13.70;81.20;;;;;;5073997;28;20090;-83
2021/09/06 18:18:59;;;;;;;17.75;10.93;;;13.70;81.20;;;;;;5073964;28;20879;-81
2021/09/06 18:21:24;;;;;;;20.30;9.93;;;13.60;81.30;;;;;;5074704;28;20046;-81
2021/09/06 18:23:50;;;;;;;20.35;12.02;;;13.40;81.30;;;;;;5075366;28;20067;-81
2021/09/06 18:26:17;;;;;;;16.02;9.85;;;13.30;81.60;;;;;;5074870;28;20020;-81
2021/09/06 18:28:42;;;;;;;19.05;12.27;;;13.20;81.90;;;;;;5074799;28;20115;-81
2021/09/06 18:31:08;;;;;;;27.02;13.38;;;13.10;82.30;;;;;;5074051;28;20052;-81
2021/09/06 18:33:34;;;;;;;23.55;14.35;;;13.00;82.90;;;;;;5075456;28;20044;-81
2021/09/06 18:36:01;;;;;;;22.92;13.90;;;12.90;83.20;;;;;;5073627;28;20037;-81
2021/09/06 18:38:26;;;;;;;22.13;12.68;;;12.80;83.40;;;;;;5075121;28;20028;-81
2021/09/06 18:40:53;;;;;;;22.77;13.32;;;12.70;83.70;;;;;;5073744;28;20028;-81
2021/09/06 18:43:20;;;;;;;21.88;12.25;;;12.60;83.80;;;;;;5072595;28;20490;-81
2021/09/06 18:45:47;;;;;;;19.15;10.32;;;12.50;84.10;;;;;;5069752;28;20024;-81
2021/09/06 18:48:12;;;;;;;18.92;10.65;;;12.40;84.00;;;;;;5073059;28;20042;-81
2021/09/06 18:50:39;;;;;;;55.08;31.50;;;12.40;84.30;;;;;;5073432;28;20088;-80
2021/09/06 18:53:04;;;;;;;32.60;19.90;;;12.30;84.50;;;;;;5073519;28;20048;-80
2021/09/06 18:55:30;;;;;;;37.13;22.05;;;12.20;85.10;;;;;;5074628;28;20067;-81
2021/09/06 18:57:55;;;;;;;48.08;26.40;;;12.10;85.50;;;;;;5074688;28;20028;-81
2021/09/06 19:00:21;;;;;;;31.30;15.88;;;12.10;85.80;;;;;;5074327;28;20044;-79
2021/09/06 19:02:47;;;;;;;35.10;15.40;;;12.10;86.30;;;;;;5074197;28;20020;-78
2021/09/06 19:05:13;;;;;;;31.65;17.35;;;12.00;86.70;;;;;;5074522;28;20024;-79
2021/09/06 19:07:38;;;;;;;32.05;15.70;;;12.00;87.60;;;;;;5074094;28;20032;-79
2021/09/06 19:10:05;;;;;;;32.28;15.95;;;12.00;87.40;;;;;;5074306;28;20039;-82
2021/09/06 19:12:31;;;;;;;31.23;15.57;;;12.10;87.90;;;;;;5074182;28;20035;-81
2021/09/06 19:14:57;;;;;;;27.50;14.90;;;12.10;88.00;;;;;;5074411;28;20099;-81
2021/09/06 19:17:23;;;;;;;27.33;15.55;;;12.20;88.30;;;;;;5074239;28;20420;-81
2021/09/06 19:19:48;;;;;;;31.23;16.63;;;12.30;88.40;;;;;;5072569;28;20056;-81
2021/09/06 19:22:14;;;;;;;32.13;18.98;;;12.40;88.70;;;;;;5072170;28;20062;-81
2021/09/06 19:24:48;;;;;;;36.90;18.75;;;12.40;88.70;;;;;;5074089;28;20025;-80
2021/09/06 19:27:14;;;;;;;35.70;18.92;;;12.40;88.70;;;;;;5074071;28;20024;-81
2021/09/06 19:29:39;;;;;;;35.03;19.63;;;12.50;89.00;;;;;;5074127;28;20565;-79
2021/09/06 19:32:05;;;;;;;47.03;26.98;;;12.50;89.20;;;;;;5074103;28;20028;-79
2021/09/06 19:34:31;;;;;;;43.03;24.50;;;12.60;89.40;;;;;;5073805;28;20024;-79
2021/09/06 19:36:56;;;;;;;43.17;25.52;;;12.60;89.60;;;;;;5072612;28;20021;-79
2021/09/06 19:39:23;;;;;;;37.08;22.70;;;12.70;89.80;;;;;;5073794;28;20082;-79
2021/09/06 19:41:49;;;;;;;45.22;24.52;;;12.70;89.90;;;;;;5076199;28;20113;-79
2021/09/06 19:44:17;;;;;;;47.28;26.13;;;12.70;90.00;;;;;;5093425;28;20409;-80
2021/09/06 19:46:42;;;;;;;65.30;34.85;;;12.80;90.00;;;;;;5072824;28;20013;-80
2021/09/06 19:49:08;;;;;;;78.15;40.97;;;12.80;89.90;;;;;;5072042;28;20027;-80
2021/09/06 19:51:33;;;;;;;102.38;51.58;;;12.80;89.80;;;;;;5073489;28;20463;-80
2021/09/06 19:53:59;;;;;;;109.25;58.28;;;12.80;89.80;;;;;;5072895;28;20459;-81
2021/09/06 19:56:25;;;;;;;100.93;57.97;;;12.80;90.00;;;;;;5072414;28;20031;-81
2021/09/06 19:58:50;;;;;;;103.25;56.47;;;12.90;90.00;;;;;;5073750;28;20021;-81
2021/09/06 20:01:17;;;;;;;93.43;50.58;;;12.90;90.00;;;;;;5072944;28;20081;-81
2021/09/06 20:03:42;;;;;;;99.85;52.75;;;12.90;90.00;;;;;;5071900;28;20069;-81
2021/09/06 20:06:08;;;;;;;99.70;52.03;;;12.90;90.00;;;;;;5072898;28;20413;-80
2021/09/06 20:08:33;;;;;;;88.05;48.95;;;12.80;90.10;;;;;;5073629;28;20032;-81
2021/09/06 20:10:59;;;;;;;95.68;50.22;;;12.80;90.10;;;;;;5072350;28;20025;-81
2021/09/06 20:13:25;;;;;;;87.82;46.58;;;12.80;90.30;;;;;;5072410;28;20024;-81
2021/09/06 20:15:51;;;;;;;89.50;47.20;;;12.80;90.30;;;;;;5072146;28;20020;-81
2021/09/06 20:18:16;;;;;;;88.80;46.28;;;12.70;90.40;;;;;;5072277;28;20032;-81
2021/09/06 20:20:42;;;;;;;81.10;43.05;;;12.70;90.50;;;;;;5073256;28;20125;-81
2021/09/06 20:23:08;;;;;;;84.75;44.35;;;12.60;90.60;;;;;;5073315;28;20043;-81
2021/09/06 20:25:33;;;;;;;83.22;45.03;;;12.60;90.80;;;;;;5072232;28;20029;-81
2021/09/06 20:28:00;;;;;;;85.82;45.50;;;12.50;90.90;;;;;;5073473;28;20029;-81
2021/09/06 20:30:26;;;;;;;94.32;47.10;;;12.40;91.10;;;;;;5072196;28;20060;-81
2021/09/06 20:32:51;;;;;;;77.95;42.88;;;12.40;91.20;;;;;;5054666;28;20426;-81
2021/09/06 20:35:17;;;;;;;79.53;42.40;;;12.30;91.30;;;;;;5053420;28;20029;-81
2021/09/06 20:37:43;;;;;;;78.68;41.28;;;12.20;91.40;;;;;;5062128;28;20028;-81
2021/09/06 20:40:09;;;;;;;75.28;38.85;;;12.10;91.50;;;;;;5073503;28;20430;-81
2021/09/06 20:42:35;;;;;;;73.25;40.45;;;12.10;91.60;;;;;;5072130;28;20044;-81
2021/09/06 20:45:01;;;;;;;74.20;39.17;;;12.00;91.60;;;;;;5072022;28;20459;-81
2021/09/06 20:47:26;;;;;;;75.32;39.50;;;11.90;91.70;;;;;;5073302;28;20029;-81
2021/09/06 20:49:52;;;;;;;78.00;39.80;;;11.80;91.80;;;;;;5072031;28;20029;-81
2021/09/06 20:52:21;;;;;;;71.78;38.58;;;11.80;92.00;;;;;;5072887;28;20379;-81
2021/09/06 20:54:47;;;;;;;69.80;36.55;;;11.70;92.20;;;;;;5071940;28;20032;-81
2021/09/06 20:57:13;;;;;;;65.85;36.22;;;11.60;92.20;;;;;;5073168;28;20028;-81
2021/09/06 20:59:40;;;;;;;68.70;37.22;;;11.60;92.20;;;;;;5071881;28;20024;-81
2021/09/06 21:02:06;;;;;;;75.72;38.72;;;11.50;92.30;;;;;;5071900;28;20406;-81
2021/09/06 21:04:32;;;;;;;70.97;37.50;;;11.40;92.50;;;;;;5071819;28;20074;-81
2021/09/06 21:06:57;;;;;;;70.78;39.17;;;11.40;92.70;;;;;;5073441;28;20086;-81
2021/09/06 21:09:23;;;;;;;68.50;36.50;;;11.30;92.90;;;;;;5075400;28;20031;-81
2021/09/06 21:11:48;;;;;;;66.55;35.30;;;11.30;93.20;;;;;;5075585;28;20029;-81
2021/09/06 21:14:14;;;;;;;70.13;36.50;;;11.20;93.30;;;;;;5075476;28;20429;-81
2021/09/06 21:16:40;;;;;;;71.80;37.00;;;11.20;93.50;;;;;;5075487;28;20111;-81
2021/09/06 21:19:08;;;;;;;69.03;36.40;;;11.10;93.60;;;;;;5075210;28;20530;-82
2021/09/06 21:21:37;;;;;;;65.60;34.55;;;11.00;93.70;;;;;;5075311;28;20059;-81
2021/09/06 21:24:04;;;;;;;62.38;34.58;;;11.00;93.90;;;;;;5076475;28;20467;-81
2021/09/06 21:26:30;;;;;;;69.05;36.25;;;10.90;94.00;;;;;;5076486;28;20402;-81
2021/09/06 21:28:56;;;;;;;68.82;35.72;;;10.90;94.10;;;;;;5075181;28;20017;-81
2021/09/06 21:31:22;;;;;;;72.10;34.20;;;10.90;94.20;;;;;;5075173;28;20035;-81
2021/09/06 21:33:48;;;;;;;80.32;38.50;;;10.90;94.20;;;;;;5075109;28;20121;-81
2021/09/06 21:36:14;;;;;;;85.60;42.47;;;10.80;94.20;;;;;;5076342;28;20024;-81
2021/09/06 21:38:41;;;;;;;81.70;43.00;;;10.70;94.30;;;;;;5076226;28;20170;-81
2021/09/06 21:41:07;;;;;;;81.82;39.90;;;10.70;94.40;;;;;;5076217;28;20028;-81
2021/09/06 21:43:33;;;;;;;82.18;41.97;;;10.70;94.50;;;;;;5074911;28;20033;-81
2021/09/06 21:45:58;;;;;;;77.00;39.65;;;10.60;94.50;;;;;;5075223;28;20075;-81
2021/09/06 21:48:24;;;;;;;73.30;38.42;;;10.60;94.50;;;;;;5074849;28;20442;-81
2021/09/06 21:50:53;;;;;;;75.88;37.80;;;10.60;94.50;;;;;;5074799;28;20031;-81
2021/09/06 21:53:20;;;;;;;84.70;42.78;;;10.60;94.60;;;;;;5076067;28;20033;-81
2021/09/06 21:55:45;;;;;;;84.13;42.92;;;10.50;94.50;;;;;;5074512;28;20030;-81
2021/09/06 21:58:12;;;;;;;87.78;43.92;;;10.50;94.60;;;;;;5076224;28;20427;-81
2021/09/06 22:00:38;;;;;;;93.47;46.47;;;10.40;94.60;;;;;;5075913;28;20017;-82
2021/09/06 22:03:04;;;;;;;96.43;50.10;;;10.40;94.60;;;;;;5076135;28;20103;-82
2021/09/06 22:05:29;;;;;;;99.07;49.33;;;10.40;94.50;;;;;;5076125;28;20052;-81
2021/09/06 22:07:55;;;;;;;106.22;52.55;;;10.40;94.50;;;;;;5075788;28;20106;-81
2021/09/06 22:10:21;;;;;;;97.15;51.42;;;10.30;94.50;;;;;;5075573;28;20028;-82
2021/09/06 22:12:47;;;;;;;100.05;50.22;;;10.30;94.50;;;;;;5074456;28;20067;-82
2021/09/06 22:15:13;;;;;;;102.05;52.20;;;10.30;94.50;;;;;;5075514;28;20044;-81
2021/09/06 22:17:39;;;;;;;109.70;55.90;;;10.20;94.60;;;;;;5074253;28;20047;-82
2021/09/06 22:20:05;;;;;;;121.43;61.40;;;10.20;94.50;;;;;;5074116;28;20049;-81
2021/09/06 22:22:31;;;;;;;107.78;57.75;;;10.20;94.50;;;;;;5075292;28;20390;-81
2021/09/06 22:24:57;;;;;;;113.38;56.67;;;10.10;94.40;;;;;;5073972;28;20020;-82
2021/09/06 22:27:25;;;;;;;113.70;56.97;;;10.10;94.40;;;;;;5075392;28;20021;-81
2021/09/06 22:29:51;;;;;;;109.63;55.78;;;10.10;94.40;;;;;;5074144;28;20391;-81
2021/09/06 22:32:17;;;;;;;117.35;58.55;;;10.10;94.50;;;;;;5074070;28;20039;-82
2021/09/06 22:34:43;;;;;;;113.07;56.35;;;10.00;94.50;;;;;;5075207;28;20028;-82
2021/09/06 22:37:08;;;;;;;106.03;53.17;;;10.00;94.50;;;;;;5075245;28;20021;-82
2021/09/06 22:39:34;;;;;;;111.70;53.40;;;10.00;94.60;;;;;;5074815;28;20025;-82
2021/09/06 22:42:00;;;;;;;104.43;52.70;;;9.90;94.50;;;;;;5073856;28;20082;-82
2021/09/06 22:44:25;;;;;;;106.70;52.65;;;9.90;94.60;;;;;;5075105;28;20391;-82
2021/09/06 22:46:51;;;;;;;104.03;52.38;;;9.80;94.60;;;;;;5073801;28;20540;-82
2021/09/06 22:49:16;;;;;;;105.53;53.17;;;9.80;94.70;;;;;;5075287;28;20103;-81
2021/09/06 22:51:42;;;;;;;100.55;52.22;;;9.80;94.70;;;;;;5075099;28;20025;-81
2021/09/06 22:54:08;;;;;;;103.93;51.90;;;9.80;94.80;;;;;;5074918;28;20020;-82
2021/09/06 22:56:33;;;;;;;100.72;51.25;;;9.80;94.80;;;;;;5073392;28;20066;-82
2021/09/06 22:58:59;;;;;;;95.45;49.38;;;9.70;94.80;;;;;;5075022;28;20044;-81
2021/09/06 23:01:25;;;;;;;103.80;51.38;;;9.70;94.90;;;;;;5074955;28;20028;-82
2021/09/06 23:03:50;;;;;;;98.75;49.72;;;9.70;94.90;;;;;;5073423;28;20024;-82
2021/09/06 23:06:16;;;;;;;107.40;53.17;;;9.70;94.90;;;;;;5074597;28;20025;-82
2021/09/06 23:08:42;;;;;;;98.75;50.78;;;9.70;94.90;;;;;;5074597;28;20016;-82
2021/09/06 23:11:07;;;;;;;90.13;47.13;;;9.70;94.90;;;;;;5074310;28;20028;-82
2021/09/06 23:13:33;;;;;;;93.97;47.92;;;9.70;94.90;;;;;;5073205;28;20020;-82
2021/09/06 23:16:00;;;;;;;89.95;46.20;;;9.60;95.00;;;;;;5074717;28;20035;-82
2021/09/06 23:18:26;;;;;;;98.30;48.10;;;9.60;95.10;;;;;;5073458;28;20101;-82
2021/09/06 23:20:52;;;;;;;96.70;46.70;;;9.60;95.10;;;;;;5072838;28;20078;-82
2021/09/06 23:23:22;;;;;;;82.30;42.42;;;9.60;95.10;;;;;;5073100;28;20493;-82
2021/09/06 23:25:49;;;;;;;73.78;39.30;;;9.50;95.00;;;;;;5074301;28;20024;-82
2021/09/06 23:28:15;;;;;;;80.97;41.13;;;9.50;95.00;;;;;;5074720;28;20025;-83
2021/09/06 23:30:40;;;;;;;80.15;40.92;;;9.50;95.00;;;;;;5073974;28;20538;-83
2021/09/06 23:33:06;;;;;;;78.22;38.35;;;9.50;95.00;;;;;;5074084;28;20020;-83
2021/09/06 23:35:32;;;;;;;70.88;36.45;;;9.40;95.00;;;;;;5074077;28;20029;-82
2021/09/06 23:37:57;;;;;;;65.28;34.90;;;9.40;94.90;;;;;;5074023;28;20020;-83
2021/09/06 23:40:23;;;;;;;61.97;32.80;;;9.40;94.90;;;;;;5073760;28;20025;-82
2021/09/06 23:42:49;;;;;;;58.20;31.27;;;9.40;94.90;;;;;;5057034;28;20440;-82
2021/09/06 23:45:14;;;;;;;49.75;25.50;;;9.30;94.80;;;;;;5053977;28;20107;-82
2021/09/06 23:47:40;;;;;;;47.50;24.00;;;9.40;94.80;;;;;;5053921;28;20021;-82
2021/09/06 23:50:07;;;;;;;40.67;21.65;;;9.40;94.80;;;;;;5052668;28;20036;-82
2021/09/06 23:52:33;;;;;;;34.30;17.92;;;9.40;94.70;;;;;;5053781;28;20036;-82
2021/09/06 23:55:00;;;;;;;30.60;16.00;;;9.30;94.70;;;;;;5053890;28;20028;-82
2021/09/06 23:57:26;;;;;;;27.08;15.32;;;9.30;94.70;;;;;;5063358;28;20364;-82
2021/09/06 23:59:52;;;;;;;26.42;14.77;;;9.30;94.70;;;;;;5073644;28;20046;-82
